Time;durP1;ratioP1;P1;durP2;ratioP2;P2;SDS_P1;SDS_P2;PMS_P1;PMS_P2;Temp;Humidity;BMP_temperature;BMP_pressure;BME280_temperature;BME280_humidity;BME280_pressure;Samples;Min_cycle;Max_cycle;Signal;HPM_P1;HPM_P2
2021/08/04 00:00:58;;;;;;;3.70;3.35;;;;;;;;;;2073787;28;20235;-50
2021/08/04 00:01:59;;;;;;;4.05;3.75;;;;;;;;;;2076636;28;20176;-53
2021/08/04 00:02:59;;;;;;;3.40;3.20;;;;;;;;;;2070104;28;20641;-53
2021/08/04 00:03:59;;;;;;;4.85;4.45;;;;;;;;;;2058135;28;20724;-53
2021/08/04 00:05:00;;;;;;;4.95;3.67;;;;;;;;;;2063609;28;20661;-56
2021/08/04 00:06:00;;;;;;;3.67;3.38;;;;;;;;;;2072995;28;20292;-52
2021/08/04 00:07:00;;;;;;;3.97;3.70;;;;;;;;;;2071390;28;20207;-59
2021/08/04 00:08:01;;;;;;;3.40;3.05;;;;;;;;;;2072587;28;20180;-59
2021/08/04 00:09:01;;;;;;;4.15;3.85;;;;;;;;;;2074565;28;20253;-59
2021/08/04 00:10:02;;;;;;;6.35;3.60;;;;;;;;;;2075754;28;20176;-50
2021/08/04 00:11:02;;;;;;;3.90;3.60;;;;;;;;;;2072595;28;20181;-52
2021/08/04 00:12:03;;;;;;;3.78;3.58;;;;;;;;;;2072367;28;20642;-51
2021/08/04 00:13:03;;;;;;;4.15;3.80;;;;;;;;;;2072927;28;20173;-50
2021/08/04 00:14:04;;;;;;;3.95;3.75;;;;;;;;;;2072992;28;20188;-51
2021/08/04 00:15:04;;;;;;;3.80;3.50;;;;;;;;;;2074378;28;20172;-51
2021/08/04 00:16:04;;;;;;;5.70;3.63;;;;;;;;;;2074746;28;20168;-52
2021/08/04 00:17:05;;;;;;;4.00;3.70;;;;;;;;;;2074826;28;20705;-54
2021/08/04 00:18:05;;;;;;;3.80;3.50;;;;;;;;;;2074606;28;20173;-53
2021/08/04 00:19:05;;;;;;;3.67;3.38;;;;;;;;;;2066019;28;20259;-53
2021/08/04 00:20:06;;;;;;;3.97;3.67;;;;;;;;;;2065948;28;20196;-53
2021/08/04 00:21:07;;;;;;;3.40;3.10;;;;;;;;;;2077488;28;20183;-55
2021/08/04 00:22:07;;;;;;;3.80;3.50;;;;;;;;;;2082833;28;20285;-51
2021/08/04 00:23:08;;;;;;;3.53;3.33;;;;;;;;;;2075115;28;20184;-53
2021/08/04 00:24:08;;;;;;;3.70;3.30;;;;;;;;;;2081846;28;20226;-50
2021/08/04 00:25:09;;;;;;;3.75;3.55;;;;;;;;;;2082877;28;20721;-52
2021/08/04 00:26:09;;;;;;;3.42;3.22;;;;;;;;;;2082824;28;20550;-55
2021/08/04 00:27:09;;;;;;;3.85;3.55;;;;;;;;;;2082970;28;20173;-51
2021/08/04 00:28:10;;;;;;;4.10;3.78;;;;;;;;;;2082749;28;20530;-54
2021/08/04 00:29:10;;;;;;;3.88;3.58;;;;;;;;;;2066165;28;20189;-54
2021/08/04 00:30:11;;;;;;;4.20;3.30;;;;;;;;;;2066157;28;20197;-52
2021/08/04 00:31:11;;;;;;;4.00;3.70;;;;;;;;;;2068184;28;20263;-51
2021/08/04 00:32:11;;;;;;;4.10;3.58;;;;;;;;;;2073995;28;20169;-56
2021/08/04 00:33:12;;;;;;;4.07;3.67;;;;;;;;;;2082833;28;20573;-53
2021/08/04 00:34:12;;;;;;;4.00;3.80;;;;;;;;;;2082681;28;20172;-52
2021/08/04 00:35:12;;;;;;;4.25;3.72;;;;;;;;;;2078545;28;20677;-53
2021/08/04 00:36:13;;;;;;;4.72;4.05;;;;;;;;;;2073966;28;20670;-50
2021/08/04 00:37:13;;;;;;;3.95;3.65;;;;;;;;;;2073980;28;20172;-53
2021/08/04 00:38:14;;;;;;;3.95;3.65;;;;;;;;;;2074599;28;20665;-55
2021/08/04 00:39:15;;;;;;;4.10;3.90;;;;;;;;;;2073610;28;20669;-52
2021/08/04 00:40:16;;;;;;;4.55;4.15;;;;;;;;;;2066115;28;20264;-55
2021/08/04 00:41:16;;;;;;;4.45;4.15;;;;;;;;;;2065355;28;20224;-53
2021/08/04 00:42:18;;;;;;;4.20;3.90;;;;;;;;;;2057833;28;20178;-55
2021/08/04 00:43:18;;;;;;;4.38;4.07;;;;;;;;;;2066000;28;20647;-56
2021/08/04 00:44:18;;;;;;;4.97;4.10;;;;;;;;;;2065844;28;20182;-52
2021/08/04 00:45:19;;;;;;;4.57;4.28;;;;;;;;;;2065822;28;20209;-53
2021/08/04 00:46:19;;;;;;;4.78;4.38;;;;;;;;;;2065941;28;20601;-49
2021/08/04 00:47:19;;;;;;;4.30;4.00;;;;;;;;;;2073798;28;20196;-56
2021/08/04 00:48:20;;;;;;;4.30;4.00;;;;;;;;;;2065598;28;20219;-53
2021/08/04 00:49:20;;;;;;;5.60;4.30;;;;;;;;;;2069258;28;20200;-51
2021/08/04 00:50:21;;;;;;;5.07;4.60;;;;;;;;;;2073940;28;20616;-54
2021/08/04 00:51:21;;;;;;;4.55;4.25;;;;;;;;;;2076305;28;20169;-51
2021/08/04 00:52:21;;;;;;;4.78;4.38;;;;;;;;;;2074576;28;20169;-54
2021/08/04 00:53:22;;;;;;;4.80;4.50;;;;;;;;;;2074444;28;20193;-55
2021/08/04 00:54:22;;;;;;;4.18;3.88;;;;;;;;;;2072010;28;20235;-52
2021/08/04 00:55:24;;;;;;;4.47;4.18;;;;;;;;;;2073527;28;20177;-53
2021/08/04 00:56:24;;;;;;;4.93;4.60;;;;;;;;;;2082031;28;20168;-52
2021/08/04 00:57:24;;;;;;;4.70;4.40;;;;;;;;;;2073616;28;20173;-51
2021/08/04 00:58:35;;;;;;;4.85;4.55;;;;;;;;;;2071068;28;20193;-56
2021/08/04 00:59:36;;;;;;;4.65;4.25;;;;;;;;;;2068938;28;20582;-54
2021/08/04 01:00:37;;;;;;;5.10;4.75;;;;;;;;;;2073937;28;20263;-54
2021/08/04 01:01:45;;;;;;;5.65;5.25;;;;;;;;;;2065353;28;20176;-54
2021/08/04 01:03:01;;;;;;;4.93;4.43;;;;;;;;;;2074992;28;20150;-55
2021/08/04 01:04:07;;;;;;;5.80;5.30;;;;;;;;;;2065609;28;20184;-52
2021/08/04 01:05:20;;;;;;;4.95;4.57;;;;;;;;;;2076209;28;20167;-55
2021/08/04 01:06:45;;;;;;;4.97;4.43;;;;;;;;;;2081800;28;20275;-51
2021/08/04 01:07:47;;;;;;;4.78;4.25;;;;;;;;;;2073730;28;20169;-50
2021/08/04 01:08:51;;;;;;;4.78;4.38;;;;;;;;;;2073512;28;20215;-53
2021/08/04 01:09:54;;;;;;;4.88;4.45;;;;;;;;;;2067522;28;20193;-52
2021/08/04 01:10:55;;;;;;;4.85;4.45;;;;;;;;;;2056875;28;20818;-52
2021/08/04 01:11:57;;;;;;;4.97;4.57;;;;;;;;;;2055282;28;20178;-53
2021/08/04 01:13:06;;;;;;;5.25;4.85;;;;;;;;;;2065692;28;20170;-51
2021/08/04 01:14:15;;;;;;;4.13;3.92;;;;;;;;;;2064788;28;20257;-51
2021/08/04 01:15:16;;;;;;;4.38;4.07;;;;;;;;;;2066053;28;20261;-54
2021/08/04 01:16:29;;;;;;;4.95;4.50;;;;;;;;;;2061825;28;20621;-56
2021/08/04 01:17:30;;;;;;;4.00;3.80;;;;;;;;;;2064986;28;20186;-52
2021/08/04 01:18:35;;;;;;;4.72;4.18;;;;;;;;;;2064426;28;20209;-52
2021/08/04 01:19:47;;;;;;;4.13;3.83;;;;;;;;;;2066677;28;20188;-51
2021/08/04 01:20:47;;;;;;;4.43;4.13;;;;;;;;;;2072272;28;20165;-57
2021/08/04 01:22:02;;;;;;;4.00;3.67;;;;;;;;;;2069850;28;20638;-53
2021/08/04 01:23:17;;;;;;;4.18;3.85;;;;;;;;;;2072750;28;20203;-57
2021/08/04 01:24:23;;;;;;;4.45;3.97;;;;;;;;;;2071580;28;20592;-56
2021/08/04 01:25:28;;;;;;;6.32;3.90;;;;;;;;;;2061928;28;20188;-52
2021/08/04 01:26:38;;;;;;;4.13;3.83;;;;;;;;;;2064500;28;20186;-53
2021/08/04 01:27:42;;;;;;;4.68;4.22;;;;;;;;;;2057687;28;20281;-55
2021/08/04 01:28:44;;;;;;;4.47;4.07;;;;;;;;;;2064643;28;20208;-50
2021/08/04 01:29:45;;;;;;;4.43;4.13;;;;;;;;;;2065495;28;20193;-50
2021/08/04 01:30:46;;;;;;;4.18;3.75;;;;;;;;;;2064715;28;20199;-54
2021/08/04 01:31:47;;;;;;;4.47;4.10;;;;;;;;;;2064442;28;20268;-54
2021/08/04 01:32:48;;;;;;;4.57;4.28;;;;;;;;;;2065223;28;20173;-53
2021/08/04 01:33:49;;;;;;;4.75;4.35;;;;;;;;;;2078418;28;20176;-53
2021/08/04 01:34:50;;;;;;;4.85;4.53;;;;;;;;;;2072685;28;20267;-54
2021/08/04 01:35:51;;;;;;;5.43;5.03;;;;;;;;;;2072760;28;20173;-58
2021/08/04 01:36:52;;;;;;;4.53;4.22;;;;;;;;;;2064613;28;20169;-55
2021/08/04 01:37:53;;;;;;;5.03;4.53;;;;;;;;;;2064641;28;20185;-58
2021/08/04 01:38:54;;;;;;;4.82;4.43;;;;;;;;;;2066622;28;20730;-54
2021/08/04 01:39:54;;;;;;;5.25;4.75;;;;;;;;;;2066429;28;20182;-56
2021/08/04 01:40:55;;;;;;;5.28;4.90;;;;;;;;;;2065289;28;20569;-53
2021/08/04 01:41:56;;;;;;;5.72;5.22;;;;;;;;;;2064519;28;20177;-51
2021/08/04 01:42:57;;;;;;;4.80;4.40;;;;;;;;;;2071744;28;20177;-57
2021/08/04 01:43:58;;;;;;;8.18;5.30;;;;;;;;;;2066532;28;20645;-57
2021/08/04 01:44:59;;;;;;;5.18;4.78;;;;;;;;;;2064623;28;20268;-57
2021/08/04 01:46:00;;;;;;;4.95;4.55;;;;;;;;;;2067075;28;20180;-58
2021/08/04 01:47:00;;;;;;;6.53;6.03;;;;;;;;;;2067200;28;20193;-57
2021/08/04 01:48:01;;;;;;;4.72;4.43;;;;;;;;;;2059708;28;20508;-55
2021/08/04 01:49:02;;;;;;;6.25;4.90;;;;;;;;;;2052364;28;20190;-59
2021/08/04 01:50:03;;;;;;;5.20;4.82;;;;;;;;;;2061334;28;20238;-56
2021/08/04 01:51:04;;;;;;;5.13;4.45;;;;;;;;;;2063642;28;20205;-57
2021/08/04 01:52:05;;;;;;;5.50;5.00;;;;;;;;;;2066700;28;20173;-58
2021/08/04 01:53:06;;;;;;;5.03;4.63;;;;;;;;;;2063613;28;20181;-52
2021/08/04 01:54:06;;;;;;;5.38;4.93;;;;;;;;;;2064677;28;20173;-54
2021/08/04 01:55:09;;;;;;;5.25;4.85;;;;;;;;;;2071186;28;20251;-54
2021/08/04 01:56:09;;;;;;;5.72;5.25;;;;;;;;;;2070840;28;20177;-55
2021/08/04 01:57:10;;;;;;;5.63;4.63;;;;;;;;;;2071631;28;20181;-56
2021/08/04 01:58:10;;;;;;;6.07;5.30;;;;;;;;;;2064162;28;20181;-52
2021/08/04 01:59:10;;;;;;;6.18;4.97;;;;;;;;;;2067573;28;20173;-54
2021/08/04 02:00:11;;;;;;;7.43;5.60;;;;;;;;;;2069374;28;20189;-58
2021/08/04 02:01:14;;;;;;;5.80;5.30;;;;;;;;;;2067784;28;20756;-55
2021/08/04 02:02:16;;;;;;;5.63;5.18;;;;;;;;;;2072170;28;20169;-60
2021/08/04 02:03:16;;;;;;;5.53;5.13;;;;;;;;;;2064952;28;20178;-55
2021/08/04 02:04:17;;;;;;;5.82;5.32;;;;;;;;;;2068440;28;20174;-56
2021/08/04 02:05:18;;;;;;;6.20;5.60;;;;;;;;;;2069913;28;20561;-54
2021/08/04 02:06:21;;;;;;;6.63;6.10;;;;;;;;;;2077130;28;20189;-56
2021/08/04 02:07:24;;;;;;;6.82;6.22;;;;;;;;;;2072571;28;20169;-58
2021/08/04 02:08:25;;;;;;;6.30;5.80;;;;;;;;;;2076002;28;20279;-54
2021/08/04 02:09:46;;;;;;;6.40;5.80;;;;;;;;;;2065108;28;20308;-56
2021/08/04 02:10:49;;;;;;;6.40;5.90;;;;;;;;;;2065072;28;20558;-56
2021/08/04 02:12:01;;;;;;;7.10;6.47;;;;;;;;;;2061512;28;20653;-57
2021/08/04 02:13:07;;;;;;;8.65;6.18;;;;;;;;;;2059514;28;20237;-56
2021/08/04 02:14:12;;;;;;;6.88;6.18;;;;;;;;;;2068134;28;20252;-55
2021/08/04 02:15:13;;;;;;;7.00;6.40;;;;;;;;;;2069891;28;20183;-56
2021/08/04 02:16:13;;;;;;;6.25;5.68;;;;;;;;;;2071214;28;20223;-56
2021/08/04 02:17:19;;;;;;;7.15;6.20;;;;;;;;;;2073063;28;20219;-55
2021/08/04 02:18:23;;;;;;;6.60;6.00;;;;;;;;;;2067808;28;20196;-49
2021/08/04 02:19:26;;;;;;;7.03;6.43;;;;;;;;;;2060321;28;20244;-54
2021/08/04 02:20:28;;;;;;;6.60;5.95;;;;;;;;;;2065242;28;20646;-56
2021/08/04 02:21:30;;;;;;;6.82;6.30;;;;;;;;;;2078829;28;20195;-56
2021/08/04 02:22:36;;;;;;;6.30;5.80;;;;;;;;;;2071439;28;20177;-55
2021/08/04 02:23:37;;;;;;;6.07;5.57;;;;;;;;;;2072167;28;20168;-58
2021/08/04 02:24:40;;;;;;;6.00;5.50;;;;;;;;;;2069771;28;20308;-53
2021/08/04 02:25:45;;;;;;;6.60;6.00;;;;;;;;;;2057355;28;20662;-51
2021/08/04 02:26:48;;;;;;;6.07;5.57;;;;;;;;;;2057498;28;20178;-54
2021/08/04 02:27:50;;;;;;;6.43;5.82;;;;;;;;;;2057403;28;20341;-54
2021/08/04 02:28:52;;;;;;;7.03;6.30;;;;;;;;;;2064866;28;20193;-54
2021/08/04 02:29:53;;;;;;;6.97;6.22;;;;;;;;;;2065249;28;20181;-56
2021/08/04 02:30:54;;;;;;;7.10;6.45;;;;;;;;;;2074115;28;20189;-52
2021/08/04 02:31:54;;;;;;;5.22;4.88;;;;;;;;;;2066666;28;20196;-56
2021/08/04 02:32:55;;;;;;;6.50;5.75;;;;;;;;;;2072378;28;20177;-52
2021/08/04 02:33:55;;;;;;;7.75;6.35;;;;;;;;;;2073056;28;20191;-56
2021/08/04 02:34:56;;;;;;;6.75;6.15;;;;;;;;;;2072943;28;20165;-55
2021/08/04 02:35:56;;;;;;;6.70;6.10;;;;;;;;;;2065090;28;20689;-53
2021/08/04 02:36:57;;;;;;;6.30;5.80;;;;;;;;;;2067048;28;20184;-58
2021/08/04 02:37:57;;;;;;;6.60;5.90;;;;;;;;;;2061966;28;20170;-57
2021/08/04 02:39:01;;;;;;;7.43;5.90;;;;;;;;;;2068907;28;20212;-59
2021/08/04 02:40:03;;;;;;;7.20;6.60;;;;;;;;;;2070290;28;20181;-58
2021/08/04 02:41:03;;;;;;;5.75;5.35;;;;;;;;;;2072234;28;20192;-58
2021/08/04 02:42:04;;;;;;;7.28;6.43;;;;;;;;;;2067707;28;20194;-56
2021/08/04 02:43:04;;;;;;;6.20;5.80;;;;;;;;;;2065028;28;20193;-55
2021/08/04 02:44:05;;;;;;;6.40;5.90;;;;;;;;;;2070270;28;20182;-54
2021/08/04 02:45:05;;;;;;;6.43;6.03;;;;;;;;;;2073776;28;20215;-54
2021/08/04 02:46:06;;;;;;;6.78;6.18;;;;;;;;;;2073095;28;20592;-55
2021/08/04 02:47:06;;;;;;;6.28;5.78;;;;;;;;;;2064808;28;20294;-54
2021/08/04 02:48:07;;;;;;;6.40;5.88;;;;;;;;;;2066911;28;20679;-57
2021/08/04 02:49:08;;;;;;;6.82;6.28;;;;;;;;;;2093901;22;20352;-58
2021/08/04 02:50:09;;;;;;;5.90;5.35;;;;;;;;;;2087876;28;20665;-58
2021/08/04 02:51:12;;;;;;;5.80;5.30;;;;;;;;;;2085041;28;20164;-59
2021/08/04 02:52:14;;;;;;;6.47;5.85;;;;;;;;;;2086072;28;20850;-57
2021/08/04 02:53:15;;;;;;;6.25;5.65;;;;;;;;;;2089658;28;20167;-58
2021/08/04 02:54:17;;;;;;;6.22;5.63;;;;;;;;;;2088768;28;20169;-56
2021/08/04 02:55:17;;;;;;;6.65;6.05;;;;;;;;;;2090026;28;20175;-58
2021/08/04 02:56:17;;;;;;;6.00;5.55;;;;;;;;;;2096739;28;20163;-58
2021/08/04 02:57:18;;;;;;;6.07;5.47;;;;;;;;;;2081000;28;20180;-53
2021/08/04 02:58:18;;;;;;;5.88;5.43;;;;;;;;;;2072983;28;20177;-57
2021/08/04 02:59:18;;;;;;;6.38;5.88;;;;;;;;;;2080647;28;20196;-57
2021/08/04 03:00:19;;;;;;;6.35;5.82;;;;;;;;;;2081475;28;20180;-56
2021/08/04 03:01:19;;;;;;;6.00;5.60;;;;;;;;;;2072724;28;20204;-57
2021/08/04 03:02:19;;;;;;;6.40;5.78;;;;;;;;;;2077276;28;20192;-58
2021/08/04 03:03:19;;;;;;;5.72;5.15;;;;;;;;;;2077956;28;20641;-56
2021/08/04 03:04:20;;;;;;;6.95;6.45;;;;;;;;;;2080173;28;20168;-53
2021/08/04 03:05:20;;;;;;;6.00;5.60;;;;;;;;;;2079406;28;20180;-58
2021/08/04 03:06:20;;;;;;;6.78;6.18;;;;;;;;;;2071293;28;20181;-56
2021/08/04 03:07:20;;;;;;;7.65;6.95;;;;;;;;;;2079664;28;20188;-57
2021/08/04 03:08:20;;;;;;;6.32;5.88;;;;;;;;;;2089151;28;20258;-57
2021/08/04 03:09:21;;;;;;;7.00;6.40;;;;;;;;;;2088882;28;20276;-57
2021/08/04 03:10:21;;;;;;;7.65;7.05;;;;;;;;;;2079842;28;20747;-58
2021/08/04 03:11:21;;;;;;;7.03;6.28;;;;;;;;;;2079571;28;20601;-55
2021/08/04 03:12:21;;;;;;;6.88;6.28;;;;;;;;;;2079706;28;20568;-55
2021/08/04 03:13:22;;;;;;;6.93;6.32;;;;;;;;;;2080091;28;20670;-56
2021/08/04 03:14:22;;;;;;;6.50;6.05;;;;;;;;;;2088567;28;20237;-58
2021/08/04 03:15:23;;;;;;;7.60;6.93;;;;;;;;;;2088943;28;20195;-57
2021/08/04 03:16:23;;;;;;;7.00;6.32;;;;;;;;;;2088573;28;20184;-56
2021/08/04 03:17:23;;;;;;;6.03;5.63;;;;;;;;;;2080287;28;20167;-57
2021/08/04 03:18:23;;;;;;;6.57;5.65;;;;;;;;;;2079717;28;20170;-54
2021/08/04 03:19:24;;;;;;;6.80;5.97;;;;;;;;;;2076923;28;20212;-56
2021/08/04 03:20:24;;;;;;;6.40;6.00;;;;;;;;;;2080592;28;20214;-57
2021/08/04 03:21:24;;;;;;;7.05;6.47;;;;;;;;;;2081623;28;20176;-58
2021/08/04 03:22:24;;;;;;;7.28;6.20;;;;;;;;;;2087204;28;20532;-55
2021/08/04 03:23:24;;;;;;;6.53;6.03;;;;;;;;;;2089231;28;20184;-55
2021/08/04 03:24:25;;;;;;;7.40;6.63;;;;;;;;;;2088510;28;20179;-57
2021/08/04 03:25:25;;;;;;;6.78;6.28;;;;;;;;;;2088760;28;20163;-56
2021/08/04 03:26:25;;;;;;;7.03;6.53;;;;;;;;;;2089277;28;20260;-57
2021/08/04 03:27:25;;;;;;;6.28;5.85;;;;;;;;;;2088658;28;20167;-57
2021/08/04 03:28:26;;;;;;;6.53;6.03;;;;;;;;;;2088390;28;20190;-57
2021/08/04 03:29:26;;;;;;;7.05;6.45;;;;;;;;;;2088526;28;20299;-56
2021/08/04 03:30:26;;;;;;;6.85;6.30;;;;;;;;;;2088820;28;20159;-58
2021/08/04 03:31:26;;;;;;;8.57;6.85;;;;;;;;;;2088301;28;20176;-59
2021/08/04 03:32:27;;;;;;;7.18;6.47;;;;;;;;;;2088471;28;20190;-58
2021/08/04 03:33:27;;;;;;;7.28;6.57;;;;;;;;;;2088607;28;20164;-57
2021/08/04 03:34:27;;;;;;;6.53;6.13;;;;;;;;;;2088479;28;20183;-56
2021/08/04 03:35:27;;;;;;;6.53;6.00;;;;;;;;;;2088555;28;20168;-56
2021/08/04 03:36:28;;;;;;;7.10;6.50;;;;;;;;;;2088488;28;20187;-54
2021/08/04 03:37:29;;;;;;;7.15;6.50;;;;;;;;;;2089011;28;20747;-57
2021/08/04 03:38:29;;;;;;;7.47;6.88;;;;;;;;;;2088949;28;20251;-57
2021/08/04 03:39:29;;;;;;;6.72;6.30;;;;;;;;;;2088709;28;20600;-58
2021/08/04 03:40:30;;;;;;;7.13;6.53;;;;;;;;;;2086156;28;20190;-56
2021/08/04 03:41:30;;;;;;;7.50;6.85;;;;;;;;;;2081141;28;20168;-56
2021/08/04 03:42:30;;;;;;;6.95;6.25;;;;;;;;;;2083798;28;20179;-54
2021/08/04 03:43:30;;;;;;;5.80;5.40;;;;;;;;;;2089193;28;20284;-58
2021/08/04 03:44:30;;;;;;;6.60;5.97;;;;;;;;;;2089016;28;20183;-59
2021/08/04 03:45:31;;;;;;;5.70;5.20;;;;;;;;;;2079851;28;20176;-54
2021/08/04 03:46:31;;;;;;;6.05;5.65;;;;;;;;;;2079432;28;20199;-55
2021/08/04 03:47:31;;;;;;;6.78;6.20;;;;;;;;;;2073082;28;20176;-53
2021/08/04 03:48:33;;;;;;;6.70;6.08;;;;;;;;;;2075655;28;1071756;-58
2021/08/04 03:49:33;;;;;;;6.85;6.25;;;;;;;;;;2079140;28;20625;-57
2021/08/04 03:50:33;;;;;;;8.15;7.45;;;;;;;;;;2080098;28;20636;-54
2021/08/04 03:51:33;;;;;;;5.95;5.45;;;;;;;;;;2087374;28;20171;-56
2021/08/04 03:52:34;;;;;;;6.60;6.00;;;;;;;;;;2079220;28;20287;-52
2021/08/04 03:53:34;;;;;;;6.75;6.25;;;;;;;;;;2079191;28;20172;-57
2021/08/04 03:54:34;;;;;;;6.55;6.03;;;;;;;;;;2087230;28;20171;-56
2021/08/04 03:55:34;;;;;;;7.05;6.45;;;;;;;;;;2088906;28;20237;-56
2021/08/04 03:56:35;;;;;;;8.00;7.32;;;;;;;;;;2079826;28;20168;-58
2021/08/04 03:57:35;;;;;;;6.63;6.03;;;;;;;;;;2076474;28;20186;-55
2021/08/04 03:58:35;;;;;;;7.68;7.07;;;;;;;;;;2089432;28;20167;-53
2021/08/04 03:59:35;;;;;;;6.68;6.18;;;;;;;;;;2088448;28;20602;-56
2021/08/04 04:00:36;;;;;;;6.75;6.25;;;;;;;;;;2088656;28;20183;-55
2021/08/04 04:01:36;;;;;;;6.97;6.38;;;;;;;;;;2088709;28;20243;-56
2021/08/04 04:02:36;;;;;;;8.52;7.72;;;;;;;;;;2076343;28;20184;-59
2021/08/04 04:03:36;;;;;;;7.45;6.75;;;;;;;;;;2080141;28;20211;-57
2021/08/04 04:04:37;;;;;;;8.65;7.95;;;;;;;;;;2088564;28;20316;-57
2021/08/04 04:05:37;;;;;;;7.70;7.10;;;;;;;;;;2088826;28;20660;-54
2021/08/04 04:06:37;;;;;;;8.32;7.70;;;;;;;;;;2088540;28;20662;-56
2021/08/04 04:07:38;;;;;;;6.90;6.30;;;;;;;;;;2088725;28;20203;-54
2021/08/04 04:08:38;;;;;;;6.72;6.22;;;;;;;;;;2088733;28;20293;-56
2021/08/04 04:09:38;;;;;;;5.63;5.13;;;;;;;;;;2088282;28;20207;-54
2021/08/04 04:10:38;;;;;;;6.43;5.95;;;;;;;;;;2088120;28;20195;-54
2021/08/04 04:11:39;;;;;;;7.15;6.60;;;;;;;;;;2085647;28;20241;-56
2021/08/04 04:12:39;;;;;;;6.57;6.10;;;;;;;;;;2089293;28;20159;-57
2021/08/04 04:13:39;;;;;;;7.85;7.15;;;;;;;;;;2080358;28;20645;-59
2021/08/04 04:14:39;;;;;;;7.10;6.40;;;;;;;;;;2079970;28;20255;-56
2021/08/04 04:15:40;;;;;;;6.80;6.20;;;;;;;;;;2088774;28;20722;-58
2021/08/04 04:16:40;;;;;;;7.55;6.95;;;;;;;;;;2089082;28;20171;-57
2021/08/04 04:17:40;;;;;;;6.50;6.00;;;;;;;;;;2088963;28;20191;-53
2021/08/04 04:18:40;;;;;;;8.23;7.43;;;;;;;;;;2089445;28;20178;-56
2021/08/04 04:19:41;;;;;;;7.63;6.97;;;;;;;;;;2089541;28;20179;-55
2021/08/04 04:20:41;;;;;;;8.05;7.00;;;;;;;;;;2089353;28;20171;-57
2021/08/04 04:21:41;;;;;;;7.05;6.47;;;;;;;;;;2089163;28;20186;-58
2021/08/04 04:22:44;;;;;;;8.30;6.63;;;;;;;;;;2089481;28;20176;-59
2021/08/04 04:23:45;;;;;;;6.75;6.15;;;;;;;;;;2089257;28;20586;-59
2021/08/04 04:24:45;;;;;;;7.90;7.20;;;;;;;;;;2089360;28;20199;-60
2021/08/04 04:25:45;;;;;;;7.47;6.72;;;;;;;;;;2089599;28;20700;-59
2021/08/04 04:26:45;;;;;;;7.78;7.05;;;;;;;;;;2089405;28;20176;-57
2021/08/04 04:27:46;;;;;;;7.05;6.45;;;;;;;;;;2089544;28;20559;-57
2021/08/04 04:28:46;;;;;;;8.23;7.57;;;;;;;;;;2089124;28;20217;-58
2021/08/04 04:29:46;;;;;;;7.57;6.97;;;;;;;;;;2080405;28;20184;-60
2021/08/04 04:30:46;;;;;;;8.55;7.50;;;;;;;;;;2080601;28;20216;-58
2021/08/04 04:31:47;;;;;;;7.68;6.97;;;;;;;;;;2089103;28;20190;-58
2021/08/04 04:32:47;;;;;;;8.10;7.30;;;;;;;;;;2089422;28;20163;-58
2021/08/04 04:33:47;;;;;;;8.93;8.10;;;;;;;;;;2087735;28;20648;-59
2021/08/04 04:34:47;;;;;;;9.15;8.23;;;;;;;;;;2088415;28;20171;-58
2021/08/04 04:35:47;;;;;;;9.45;8.60;;;;;;;;;;2088109;28;20658;-57
2021/08/04 04:36:48;;;;;;;10.05;9.23;;;;;;;;;;2088665;28;20257;-58
2021/08/04 04:37:48;;;;;;;9.05;8.23;;;;;;;;;;2088560;28;20254;-58
2021/08/04 04:38:48;;;;;;;10.20;7.68;;;;;;;;;;2088364;28;20171;-57
2021/08/04 04:39:48;;;;;;;8.38;7.68;;;;;;;;;;2088824;28;20168;-56
2021/08/04 04:40:49;;;;;;;8.50;7.70;;;;;;;;;;2086998;28;20690;-58
2021/08/04 04:41:49;;;;;;;10.80;9.77;;;;;;;;;;2088393;28;20164;-55
2021/08/04 04:42:49;;;;;;;8.25;7.45;;;;;;;;;;2088750;28;20182;-57
2021/08/04 04:43:49;;;;;;;8.27;7.57;;;;;;;;;;2089345;28;20168;-56
2021/08/04 04:44:50;;;;;;;9.13;7.47;;;;;;;;;;2089193;28;20672;-57
2021/08/04 04:45:50;;;;;;;8.23;7.53;;;;;;;;;;2088548;28;20207;-54
2021/08/04 04:46:50;;;;;;;8.38;7.63;;;;;;;;;;2088167;28;20186;-56
2021/08/04 04:47:50;;;;;;;8.82;8.00;;;;;;;;;;2088597;28;20615;-59
2021/08/04 04:48:50;;;;;;;8.65;7.90;;;;;;;;;;2088761;28;20581;-59
2021/08/04 04:49:51;;;;;;;7.70;6.95;;;;;;;;;;2088625;28;20759;-58
2021/08/04 04:50:51;;;;;;;9.02;8.15;;;;;;;;;;2088320;28;20551;-57
2021/08/04 04:51:51;;;;;;;7.88;7.15;;;;;;;;;;2088084;28;20557;-58
2021/08/04 04:52:52;;;;;;;7.20;6.50;;;;;;;;;;2088847;28;20226;-57
2021/08/04 04:53:52;;;;;;;7.72;7.03;;;;;;;;;;2089117;28;20600;-58
2021/08/04 04:54:53;;;;;;;6.82;6.22;;;;;;;;;;2088929;28;20209;-56
2021/08/04 04:55:53;;;;;;;11.20;10.10;;;;;;;;;;2088708;28;20246;-56
2021/08/04 04:56:54;;;;;;;6.53;6.03;;;;;;;;;;2081754;28;20180;-56
2021/08/04 04:57:54;;;;;;;8.10;7.30;;;;;;;;;;2088240;28;20214;-56
2021/08/04 04:58:54;;;;;;;7.22;5.88;;;;;;;;;;2089367;28;20241;-55
2021/08/04 04:59:54;;;;;;;6.45;5.90;;;;;;;;;;2089030;28;20259;-56
2021/08/04 05:00:55;;;;;;;7.82;6.60;;;;;;;;;;2089382;28;20172;-57
2021/08/04 05:01:55;;;;;;;6.50;6.00;;;;;;;;;;2089581;28;20641;-56
2021/08/04 05:02:55;;;;;;;6.80;6.25;;;;;;;;;;2090859;28;20188;-54
2021/08/04 05:03:55;;;;;;;7.78;7.15;;;;;;;;;;2090435;28;20888;-58
2021/08/04 05:04:56;;;;;;;8.00;7.40;;;;;;;;;;2090945;28;20621;-55
2021/08/04 05:05:56;;;;;;;8.35;7.55;;;;;;;;;;2081380;28;20200;-54
2021/08/04 05:06:56;;;;;;;7.10;6.50;;;;;;;;;;2081850;28;20177;-59
2021/08/04 05:07:57;;;;;;;7.13;6.53;;;;;;;;;;2090354;28;20168;-60
2021/08/04 05:08:57;;;;;;;13.77;12.40;;;;;;;;;;2089726;28;20202;-56
2021/08/04 05:09:57;;;;;;;8.57;7.07;;;;;;;;;;2090197;28;20179;-58
2021/08/04 05:10:57;;;;;;;8.77;7.93;;;;;;;;;;2090645;28;20192;-59
2021/08/04 05:11:57;;;;;;;10.25;9.35;;;;;;;;;;2089568;28;20184;-58
2021/08/04 05:12:58;;;;;;;9.50;8.75;;;;;;;;;;2089390;28;20171;-57
2021/08/04 05:13:58;;;;;;;9.02;8.32;;;;;;;;;;2089514;28;20179;-58
2021/08/04 05:14:58;;;;;;;8.65;7.95;;;;;;;;;;2089635;28;20167;-58
2021/08/04 05:15:59;;;;;;;7.03;6.40;;;;;;;;;;2089477;28;20171;-58
2021/08/04 05:16:59;;;;;;;11.63;10.60;;;;;;;;;;2089771;28;20255;-55
2021/08/04 05:17:59;;;;;;;8.63;7.80;;;;;;;;;;2090241;28;20176;-58
2021/08/04 05:18:59;;;;;;;10.20;8.57;;;;;;;;;;2081609;28;20200;-57
2021/08/04 05:20:00;;;;;;;10.35;9.40;;;;;;;;;;2081304;28;20192;-54
2021/08/04 05:21:00;;;;;;;9.48;8.48;;;;;;;;;;2081558;28;20187;-57
2021/08/04 05:22:00;;;;;;;8.40;7.70;;;;;;;;;;2088299;28;20176;-56
2021/08/04 05:23:00;;;;;;;6.88;6.28;;;;;;;;;;2090575;28;20163;-55
2021/08/04 05:24:01;;;;;;;9.85;8.85;;;;;;;;;;2088086;28;20183;-57
2021/08/04 05:25:01;;;;;;;8.43;7.72;;;;;;;;;;2090665;28;20644;-56
2021/08/04 05:26:02;;;;;;;6.85;6.10;;;;;;;;;;2089966;28;20663;-55
2021/08/04 05:27:02;;;;;;;7.97;7.18;;;;;;;;;;2090229;28;20171;-54
2021/08/04 05:28:02;;;;;;;6.55;5.95;;;;;;;;;;2085624;28;20171;-58
2021/08/04 05:29:03;;;;;;;9.15;7.90;;;;;;;;;;2089684;28;20366;-56
2021/08/04 05:30:03;;;;;;;6.30;5.70;;;;;;;;;;2089924;28;20167;-57
2021/08/04 05:31:04;;;;;;;9.18;8.43;;;;;;;;;;2085830;28;20192;-55
2021/08/04 05:32:04;;;;;;;6.53;6.05;;;;;;;;;;2089867;28;20171;-55
2021/08/04 05:33:04;;;;;;;6.45;5.80;;;;;;;;;;2081654;28;20215;-56
2021/08/04 05:34:04;;;;;;;8.93;7.10;;;;;;;;;;2079339;28;20180;-55
2021/08/04 05:35:05;;;;;;;7.47;6.60;;;;;;;;;;2089051;28;20220;-54
2021/08/04 05:36:05;;;;;;;6.28;5.72;;;;;;;;;;2087524;28;20571;-52
2021/08/04 05:37:06;;;;;;;6.70;6.03;;;;;;;;;;2088904;28;20560;-55
2021/08/04 05:38:06;;;;;;;5.90;5.45;;;;;;;;;;2089695;28;20264;-53
2021/08/04 05:39:06;;;;;;;7.63;6.95;;;;;;;;;;2085013;28;20198;-53
2021/08/04 05:40:07;;;;;;;6.10;5.60;;;;;;;;;;2086351;28;20587;-52
2021/08/04 05:41:07;;;;;;;6.95;6.38;;;;;;;;;;2089911;28;20512;-55
2021/08/04 05:42:07;;;;;;;7.80;7.03;;;;;;;;;;2089724;28;20184;-58
2021/08/04 05:43:07;;;;;;;8.13;7.43;;;;;;;;;;2089756;28;20176;-57
2021/08/04 05:44:08;;;;;;;6.93;6.20;;;;;;;;;;2080573;28;20195;-57
2021/08/04 05:45:08;;;;;;;6.15;5.75;;;;;;;;;;2080130;28;20276;-56
2021/08/04 05:46:09;;;;;;;5.85;5.35;;;;;;;;;;2089395;28;20168;-58
2021/08/04 05:47:09;;;;;;;6.13;5.30;;;;;;;;;;2089586;28;20190;-59
2021/08/04 05:48:10;;;;;;;6.95;6.20;;;;;;;;;;2089582;28;20547;-54
2021/08/04 05:49:10;;;;;;;6.65;5.97;;;;;;;;;;2089446;28;20211;-57
2021/08/04 05:50:10;;;;;;;7.30;6.70;;;;;;;;;;2089963;28;20180;-53
2021/08/04 05:51:11;;;;;;;6.72;6.22;;;;;;;;;;2080277;28;20172;-57
2021/08/04 05:52:11;;;;;;;6.43;5.93;;;;;;;;;;2080735;28;20188;-58
2021/08/04 05:53:11;;;;;;;6.32;5.85;;;;;;;;;;2089636;28;20175;-57
2021/08/04 05:54:12;;;;;;;5.93;5.20;;;;;;;;;;2089521;28;20202;-58
2021/08/04 05:55:12;;;;;;;6.50;6.00;;;;;;;;;;2089749;28;20182;-57
2021/08/04 05:56:12;;;;;;;5.53;5.13;;;;;;;;;;2089536;28;20174;-55
2021/08/04 05:57:12;;;;;;;5.80;5.30;;;;;;;;;;2088879;28;20191;-56
2021/08/04 05:58:13;;;;;;;5.80;5.40;;;;;;;;;;2089972;28;20187;-58
2021/08/04 05:59:13;;;;;;;6.55;5.95;;;;;;;;;;2089427;28;20195;-58
2021/08/04 06:00:14;;;;;;;7.30;6.80;;;;;;;;;;2087746;28;20179;-59
2021/08/04 06:01:14;;;;;;;5.57;5.07;;;;;;;;;;2088421;28;20262;-57
2021/08/04 06:02:14;;;;;;;5.75;5.35;;;;;;;;;;2086421;28;20591;-59
2021/08/04 06:03:14;;;;;;;5.93;5.43;;;;;;;;;;2087982;28;20183;-56
2021/08/04 06:04:14;;;;;;;5.25;4.85;;;;;;;;;;2089168;28;20167;-53
2021/08/04 06:05:15;;;;;;;5.68;5.28;;;;;;;;;;2088551;28;20257;-52
2021/08/04 06:06:15;;;;;;;6.25;5.82;;;;;;;;;;2088666;28;20505;-56
2021/08/04 06:07:15;;;;;;;5.70;5.18;;;;;;;;;;2088641;28;20519;-56